Time;durP1;ratioP1;P1;durP2;ratioP2;P2;SDS_P1;SDS_P2;PMS_P1;PMS_P2;Temp;Humidity;BMP_temperature;BMP_pressure;BME280_temperature;BME280_humidity;BME280_pressure;Samples;Min_cycle;Max_cycle;Signal;HPM_P1;HPM_P2
2021/10/05 00:01:43;;;;;;;3.60;1.98;;;13.50;1.00;;;;;;5071710;28;20256;-74
2021/10/05 00:04:10;;;;;;;3.05;1.13;;;13.40;1.00;;;;;;5057927;28;20206;-74
2021/10/05 00:06:37;;;;;;;2.55;1.25;;;13.40;1.00;;;;;;5071621;28;20256;-83
2021/10/05 00:09:05;;;;;;;1.85;1.65;;;13.40;1.00;;;;;;5071065;28;20206;-80
2021/10/05 00:11:32;;;;;;;3.42;1.40;;;13.50;1.00;;;;;;5071690;28;20264;-83
2021/10/05 00:14:01;;;;;;;3.63;1.65;;;13.40;1.00;;;;;;5071253;28;20734;-76
2021/10/05 00:16:28;;;;;;;4.90;1.40;;;13.40;1.00;;;;;;5071894;28;20210;-79
2021/10/05 00:18:55;;;;;;;4.38;2.50;;;13.30;1.00;;;;;;5071693;28;20278;-79
2021/10/05 00:21:22;;;;;;;3.58;2.20;;;13.20;1.00;;;;;;5071192;28;20202;-76
2021/10/05 00:23:49;;;;;;;3.13;1.30;;;13.20;1.00;;;;;;5071587;28;20684;-77
2021/10/05 00:26:16;;;;;;;4.43;1.92;;;13.20;1.00;;;;;;5070702;28;20210;-78
2021/10/05 00:28:43;;;;;;;5.60;1.42;;;13.20;1.00;;;;;;5071326;28;20202;-78
2021/10/05 00:31:11;;;;;;;3.85;2.15;;;13.10;1.00;;;;;;5070624;28;20206;-77
2021/10/05 00:33:38;;;;;;;4.88;1.60;;;13.00;1.00;;;;;;5071277;28;20198;-77
2021/10/05 00:36:06;;;;;;;11.32;2.20;;;12.90;1.00;;;;;;5070933;28;20206;-78
2021/10/05 00:38:33;;;;;;;3.78;1.38;;;12.90;1.00;;;;;;5070682;28;20774;-77
2021/10/05 00:41:00;;;;;;;4.35;1.90;;;12.90;1.00;;;;;;5070610;28;20214;-82
2021/10/05 00:43:27;;;;;;;4.35;1.67;;;12.90;1.00;;;;;;5071250;28;20210;-83
2021/10/05 00:45:55;;;;;;;4.13;2.40;;;13.00;1.00;;;;;;5071217;28;20206;-81
2021/10/05 00:48:23;;;;;;;5.75;2.00;;;12.90;1.00;;;;;;5070197;28;20210;-81
2021/10/05 00:50:51;;;;;;;2.22;1.50;;;12.80;1.00;;;;;;5071178;28;20262;-73
2021/10/05 00:53:18;;;;;;;6.03;1.45;;;12.80;1.00;;;;;;5070519;28;20252;-73
2021/10/05 00:55:45;;;;;;;3.35;1.75;;;12.80;1.00;;;;;;5070929;28;20202;-79
2021/10/05 00:58:12;;;;;;;5.32;1.88;;;12.80;1.00;;;;;;5070207;28;20775;-83
2021/10/05 01:00:39;;;;;;;5.35;1.42;;;12.80;1.00;;;;;;5070607;28;20259;-82
2021/10/05 01:03:07;;;;;;;3.10;1.50;;;12.90;1.00;;;;;;5070308;28;20236;-83
2021/10/05 01:05:35;;;;;;;6.13;1.67;;;12.80;1.00;;;;;;5070405;28;20662;-83
2021/10/05 01:08:03;;;;;;;2.83;2.25;;;12.90;1.00;;;;;;5070075;28;20665;-81
2021/10/05 01:10:30;;;;;;;3.97;1.33;;;12.80;1.00;;;;;;5070272;28;20206;-83
2021/10/05 01:12:57;;;;;;;4.47;1.75;;;12.80;1.00;;;;;;5071101;28;20620;-83
2021/10/05 01:15:26;;;;;;;10.75;4.50;;;12.80;1.00;;;;;;5070733;28;20213;-84
2021/10/05 01:17:53;;;;;;;8.35;4.20;;;12.80;1.00;;;;;;5070812;28;20229;-84
2021/10/05 01:20:21;;;;;;;6.45;3.85;;;12.80;1.00;;;;;;5070465;28;20695;-85
2021/10/05 01:22:50;;;;;;;6.32;3.50;;;12.70;1.00;;;;;;5070384;28;20206;-85
2021/10/05 01:25:17;;;;;;;4.05;2.55;;;12.70;1.00;;;;;;5070103;28;20297;-82
2021/10/05 01:27:48;;;;;;;2.55;1.55;;;12.60;1.00;;;;;;5070505;28;20271;-73
2021/10/05 01:30:16;;;;;;;3.00;1.88;;;12.60;1.00;;;;;;5070528;28;20210;-83
2021/10/05 01:32:44;;;;;;;3.58;1.55;;;12.50;1.00;;;;;;5070838;28;20259;-74
2021/10/05 01:35:12;;;;;;;6.07;2.25;;;12.50;1.00;;;;;;5070342;28;20198;-86
2021/10/05 01:37:40;;;;;;;1.20;1.10;;;12.50;1.00;;;;;;5070388;28;20216;-73
2021/10/05 01:40:11;;;;;;;5.15;2.08;;;12.50;1.00;;;;;;5070069;28;20617;-76
2021/10/05 01:42:39;;;;;;;1.50;1.30;;;12.50;1.00;;;;;;5070201;28;20218;-81
2021/10/05 01:45:07;;;;;;;1.38;1.20;;;12.50;1.00;;;;;;5069817;28;20267;-81
2021/10/05 01:47:34;;;;;;;3.75;1.33;;;12.40;1.00;;;;;;5070042;28;20275;-71
2021/10/05 01:50:02;;;;;;;5.50;1.30;;;12.40;1.00;;;;;;5069916;28;20210;-76
2021/10/05 01:52:29;;;;;;;2.15;0.95;;;12.40;1.00;;;;;;5070092;28;20588;-72
2021/10/05 01:54:57;;;;;;;5.68;1.25;;;12.30;1.00;;;;;;5070188;28;20279;-80
2021/10/05 01:57:25;;;;;;;3.47;1.20;;;12.40;1.00;;;;;;5070517;28;20205;-84
2021/10/05 01:59:52;;;;;;;6.00;2.00;;;12.40;1.00;;;;;;5070045;28;20736;-83
2021/10/05 02:02:19;;;;;;;3.60;1.40;;;12.30;1.00;;;;;;5069137;28;20786;-83
2021/10/05 02:04:46;;;;;;;4.82;1.00;;;12.30;1.00;;;;;;5067990;28;20264;-78
2021/10/05 02:07:14;;;;;;;2.33;1.52;;;12.20;1.00;;;;;;5069605;28;20205;-82
2021/10/05 02:09:47;;;;;;;1.73;1.48;;;12.20;1.00;;;;;;5069978;28;20210;-81
2021/10/05 02:12:14;;;;;;;3.13;1.42;;;12.00;1.00;;;;;;5063372;28;20213;-72
2021/10/05 02:14:43;;;;;;;1.55;1.20;;;12.00;1.00;;;;;;5070120;28;20202;-79
2021/10/05 02:17:10;;;;;;;1.30;1.10;;;12.10;1.00;;;;;;5069753;28;20210;-73
2021/10/05 02:19:37;;;;;;;4.57;1.35;;;12.10;1.00;;;;;;5069749;28;20226;-81
2021/10/05 02:22:05;;;;;;;3.15;2.10;;;12.10;1.00;;;;;;5069273;28;20284;-81
2021/10/05 02:24:42;;;;;;;1.88;1.20;;;12.00;1.00;;;;;;5073150;28;20287;-72
2021/10/05 02:27:10;;;;;;;3.08;1.33;;;12.10;1.00;;;;;;5073425;28;20206;-74
2021/10/05 02:29:37;;;;;;;6.85;1.48;;;12.10;1.00;;;;;;5073599;28;20210;-81
2021/10/05 02:32:06;;;;;;;6.50;1.45;;;12.00;1.00;;;;;;5073126;28;20208;-72
2021/10/05 02:34:34;;;;;;;1.95;1.00;;;12.00;1.00;;;;;;5073156;28;20206;-81
2021/10/05 02:37:01;;;;;;;2.38;1.42;;;11.90;1.00;;;;;;5072815;28;20629;-72
2021/10/05 02:39:28;;;;;;;1.67;1.52;;;11.90;1.00;;;;;;5073522;28;20778;-82
2021/10/05 02:41:55;;;;;;;5.85;1.55;;;11.90;1.00;;;;;;5073252;28;20575;-72
2021/10/05 02:44:22;;;;;;;2.42;1.30;;;11.80;1.00;;;;;;5073020;28;20210;-81
2021/10/05 02:46:50;;;;;;;2.47;1.15;;;11.90;1.00;;;;;;5073222;28;20211;-73
2021/10/05 02:49:18;;;;;;;5.78;2.03;;;12.00;1.00;;;;;;5072785;28;20259;-81
2021/10/05 02:51:45;;;;;;;2.22;0.80;;;12.00;1.00;;;;;;5072692;28;20206;-81
2021/10/05 02:54:12;;;;;;;2.15;1.90;;;12.00;1.00;;;;;;5072707;28;20747;-72
2021/10/05 02:56:39;;;;;;;3.70;1.20;;;12.00;1.00;;;;;;5073079;28;20264;-82
2021/10/05 02:59:06;;;;;;;2.20;1.10;;;11.90;1.00;;;;;;5072864;28;20234;-80
2021/10/05 03:01:33;;;;;;;8.20;1.50;;;11.90;1.00;;;;;;5072873;28;20210;-80
2021/10/05 03:04:00;;;;;;;3.92;1.40;;;11.80;1.00;;;;;;5072464;28;20662;-72
2021/10/05 03:06:29;;;;;;;2.35;1.38;;;11.70;1.00;;;;;;5073457;28;20272;-74
2021/10/05 03:08:56;;;;;;;3.13;1.13;;;11.60;1.00;;;;;;5073079;28;20260;-78
2021/10/05 03:11:23;;;;;;;2.10;1.05;;;11.60;1.00;;;;;;5072465;28;20260;-74
2021/10/05 03:13:50;;;;;;;2.92;1.60;;;11.60;1.00;;;;;;5072509;28;20727;-78
2021/10/05 03:16:17;;;;;;;1.50;1.20;;;11.60;1.00;;;;;;5072416;28;20307;-77
2021/10/05 03:18:45;;;;;;;2.45;1.42;;;11.70;1.00;;;;;;5072372;28;20649;-81
2021/10/05 03:21:12;;;;;;;1.80;0.90;;;11.60;1.00;;;;;;5071977;28;20206;-81
2021/10/05 03:23:41;;;;;;;2.13;1.27;;;11.60;1.00;;;;;;5072938;28;20206;-82
2021/10/05 03:26:08;;;;;;;2.20;1.17;;;11.40;1.00;;;;;;5072047;28;20248;-73
2021/10/05 03:28:35;;;;;;;5.50;2.00;;;11.30;1.00;;;;;;5072542;28;20210;-83
2021/10/05 03:31:02;;;;;;;5.35;1.63;;;11.30;1.00;;;;;;5072236;28;20206;-82
2021/10/05 03:33:29;;;;;;;3.28;1.30;;;11.40;1.00;;;;;;5072510;28;20202;-78
2021/10/05 03:35:56;;;;;;;5.82;2.58;;;11.40;1.00;;;;;;5071391;28;20206;-83
2021/10/05 03:38:23;;;;;;;2.27;1.00;;;11.40;1.00;;;;;;5071879;28;20587;-83
2021/10/05 03:40:54;;;;;;;2.70;1.35;;;11.40;1.00;;;;;;5072378;28;20211;-82
2021/10/05 03:43:21;;;;;;;2.92;1.40;;;11.40;1.00;;;;;;5071763;28;20210;-73
2021/10/05 03:45:49;;;;;;;3.42;1.20;;;11.40;1.00;;;;;;5072528;28;20297;-83
2021/10/05 03:48:17;;;;;;;5.47;1.45;;;11.50;1.00;;;;;;5071231;28;20202;-73
2021/10/05 03:50:44;;;;;;;3.08;1.55;;;11.50;1.00;;;;;;5072368;28;20202;-83
2021/10/05 03:53:15;;;;;;;1.95;1.50;;;11.50;1.00;;;;;;5071627;28;20210;-70
2021/10/05 03:55:43;;;;;;;2.30;1.42;;;11.50;1.00;;;;;;5071808;28;20206;-72
2021/10/05 03:58:12;;;;;;;2.58;1.15;;;11.50;1.00;;;;;;5071235;28;20252;-76
2021/10/05 04:00:39;;;;;;;2.55;1.30;;;11.40;1.00;;;;;;5072153;28;20202;-73
2021/10/05 04:03:06;;;;;;;1.88;1.10;;;11.50;1.00;;;;;;5071128;28;20248;-79
2021/10/05 04:05:33;;;;;;;2.50;1.45;;;11.50;1.00;;;;;;5072032;28;20270;-79
2021/10/05 04:08:01;;;;;;;5.18;1.17;;;11.40;1.00;;;;;;5071703;28;20265;-77
2021/10/05 04:10:28;;;;;;;5.13;1.83;;;11.40;1.00;;;;;;5071761;28;20275;-75
2021/10/05 04:12:55;;;;;;;1.92;1.35;;;11.40;1.00;;;;;;5072176;28;20206;-79
2021/10/05 04:15:23;;;;;;;2.22;1.08;;;11.30;1.00;;;;;;5071402;28;20211;-79
2021/10/05 04:17:50;;;;;;;3.30;1.73;;;11.20;1.00;;;;;;5071036;28;20735;-76
2021/10/05 04:20:17;;;;;;;2.30;1.80;;;11.10;1.00;;;;;;5070824;28;20287;-79
2021/10/05 04:22:44;;;;;;;4.72;2.38;;;11.40;1.00;;;;;;5071365;28;20198;-70
2021/10/05 04:25:11;;;;;;;3.92;3.53;;;11.50;1.00;;;;;;5071212;28;20263;-70
2021/10/05 04:27:40;;;;;;;1.60;1.50;;;11.60;1.00;;;;;;5071006;28;20669;-70
2021/10/05 04:30:08;;;;;;;5.97;2.10;;;11.60;1.00;;;;;;5071284;28;20240;-70
2021/10/05 04:32:37;;;;;;;6.70;2.30;;;11.60;1.00;;;;;;5070868;28;20742;-79
2021/10/05 04:35:05;;;;;;;3.83;2.10;;;11.60;1.00;;;;;;5070914;28;20263;-79
2021/10/05 04:37:32;;;;;;;3.70;2.67;;;11.50;1.00;;;;;;5070989;28;20214;-79
2021/10/05 04:39:59;;;;;;;3.15;2.40;;;11.50;1.00;;;;;;5057838;28;20226;-70
2021/10/05 04:42:26;;;;;;;6.50;3.08;;;11.40;1.00;;;;;;5071142;28;20225;-80
2021/10/05 04:44:53;;;;;;;9.80;3.42;;;11.40;1.00;;;;;;5070691;28;20259;-69
2021/10/05 04:47:20;;;;;;;5.60;2.78;;;11.30;1.00;;;;;;5070002;28;20210;-75
2021/10/05 04:49:48;;;;;;;4.32;2.15;;;11.30;1.00;;;;;;5070495;28;20210;-79
2021/10/05 04:52:15;;;;;;;4.45;2.35;;;11.30;1.00;;;;;;5070807;28;20210;-79
2021/10/05 04:54:42;;;;;;;3.03;1.80;;;11.30;1.00;;;;;;5070928;28;20205;-80
2021/10/05 04:57:10;;;;;;;2.45;1.95;;;11.40;1.00;;;;;;5070556;28;20202;-76
2021/10/05 04:59:37;;;;;;;5.47;2.42;;;11.40;1.00;;;;;;5070673;28;20282;-80
2021/10/05 05:02:04;;;;;;;2.83;2.00;;;11.60;1.00;;;;;;5069834;28;20777;-79
2021/10/05 05:04:31;;;;;;;4.22;1.63;;;11.60;1.00;;;;;;5070465;28;20210;-80
2021/10/05 05:06:59;;;;;;;2.15;1.77;;;11.70;1.00;;;;;;5070931;28;20210;-81
2021/10/05 05:09:27;;;;;;;4.63;2.92;;;11.70;1.00;;;;;;5070961;28;20682;-70
2021/10/05 05:11:53;;;;;;;2.97;2.15;;;11.70;1.00;;;;;;5070316;28;20206;-70
2021/10/05 05:14:21;;;;;;;3.72;1.88;;;11.70;1.00;;;;;;5070215;28;20594;-70
2021/10/05 05:16:48;;;;;;;6.05;2.13;;;11.80;1.00;;;;;;5070498;28;20719;-79
2021/10/05 05:19:15;;;;;;;5.18;1.70;;;11.70;1.00;;;;;;5069690;28;20233;-80
2021/10/05 05:21:43;;;;;;;3.30;2.17;;;11.80;1.00;;;;;;5070470;28;20202;-80
2021/10/05 05:24:11;;;;;;;4.75;2.85;;;11.60;1.00;;;;;;5069799;28;20216;-80
2021/10/05 05:26:39;;;;;;;6.25;1.88;;;11.60;1.00;;;;;;5070573;28;20198;-70
2021/10/05 05:29:06;;;;;;;7.40;1.73;;;11.50;1.00;;;;;;5069607;28;20210;-70
2021/10/05 05:31:33;;;;;;;6.37;2.20;;;11.50;1.00;;;;;;5070374;28;20661;-79
2021/10/05 05:34:00;;;;;;;4.13;1.40;;;11.70;1.00;;;;;;5070637;28;20259;-70
2021/10/05 05:36:27;;;;;;;3.43;1.77;;;11.80;1.00;;;;;;5070594;28;20202;-70
2021/10/05 05:38:54;;;;;;;4.43;2.38;;;11.90;1.00;;;;;;5070507;28;20210;-72
2021/10/05 05:41:22;;;;;;;11.35;2.90;;;11.90;1.00;;;;;;5069642;28;20213;-71
2021/10/05 05:43:49;;;;;;;8.40;2.50;;;11.80;1.00;;;;;;5070169;28;20661;-70
2021/10/05 05:46:16;;;;;;;4.45;2.38;;;12.00;1.00;;;;;;5069580;28;20228;-83
2021/10/05 05:48:43;;;;;;;3.58;2.25;;;11.80;1.00;;;;;;5064483;28;20206;-86
2021/10/05 05:51:10;;;;;;;3.28;1.98;;;11.90;1.00;;;;;;5058442;28;20253;-71
2021/10/05 05:53:37;;;;;;;3.80;1.88;;;12.00;1.00;;;;;;5070410;28;20256;-89
2021/10/05 05:56:04;;;;;;;5.72;2.33;;;12.10;1.00;;;;;;5063430;28;20241;-84
2021/10/05 05:58:33;;;;;;;3.72;2.28;;;12.10;1.00;;;;;;5071711;28;20719;-71
2021/10/05 06:01:00;;;;;;;5.57;2.70;;;12.00;1.00;;;;;;5074612;28;20266;-83
2021/10/05 06:03:27;;;;;;;4.95;2.22;;;12.20;1.00;;;;;;5074467;28;20232;-86
2021/10/05 06:05:54;;;;;;;5.03;2.15;;;12.30;1.00;;;;;;5074605;28;20202;-73
2021/10/05 06:08:20;;;;;;;3.50;2.22;;;12.30;1.00;;;;;;5069444;28;20210;-74
2021/10/05 06:10:47;;;;;;;8.35;2.85;;;12.20;1.00;;;;;;5073961;28;20206;-73
2021/10/05 06:13:14;;;;;;;4.18;2.00;;;12.30;1.00;;;;;;5073276;28;20218;-78
2021/10/05 06:15:43;;;;;;;4.32;2.13;;;12.30;1.00;;;;;;5073811;28;20263;-79
2021/10/05 06:18:10;;;;;;;6.10;2.88;;;12.30;1.00;;;;;;5073548;28;20282;-81
2021/10/05 06:20:37;;;;;;;2.78;2.42;;;12.30;1.00;;;;;;5073419;28;20226;-78
2021/10/05 06:23:04;;;;;;;5.75;2.17;;;12.30;1.00;;;;;;5073273;28;20263;-73
2021/10/05 06:25:32;;;;;;;11.45;4.05;;;12.20;1.00;;;;;;5073598;28;20677;-81
2021/10/05 06:28:00;;;;;;;9.43;2.45;;;12.10;1.00;;;;;;5073125;28;20236;-74
2021/10/05 06:30:28;;;;;;;6.43;2.35;;;12.10;1.00;;;;;;5073907;28;20256;-74
2021/10/05 06:32:57;;;;;;;4.47;2.08;;;12.20;1.00;;;;;;5073674;28;20206;-73
2021/10/05 06:35:26;;;;;;;2.77;2.30;;;12.10;1.00;;;;;;5065294;28;20648;-70
2021/10/05 06:37:55;;;;;;;3.75;1.58;;;12.30;1.00;;;;;;5069686;28;20640;-81
2021/10/05 06:40:23;;;;;;;5.20;1.73;;;12.50;1.00;;;;;;5072524;28;20729;-70
2021/10/05 06:42:50;;;;;;;3.47;1.70;;;12.50;1.00;;;;;;5072602;28;20713;-76
2021/10/05 06:45:17;;;;;;;7.00;1.80;;;12.60;1.00;;;;;;5072759;28;20256;-70
2021/10/05 06:47:45;;;;;;;7.65;2.92;;;12.50;1.00;;;;;;5065533;28;20567;-81
2021/10/05 06:50:14;;;;;;;3.40;2.63;;;12.60;1.00;;;;;;5064148;28;20206;-69
2021/10/05 06:52:41;;;;;;;3.72;1.75;;;12.70;1.00;;;;;;5058564;28;20616;-74
2021/10/05 06:55:09;;;;;;;6.50;1.90;;;12.80;1.00;;;;;;5057566;28;20631;-72
2021/10/05 06:57:36;;;;;;;5.05;2.22;;;12.80;1.00;;;;;;5065796;28;20202;-76
2021/10/05 07:00:04;;;;;;;5.13;2.58;;;12.70;1.00;;;;;;5055631;28;20230;-76
2021/10/05 07:02:31;;;;;;;3.88;2.25;;;12.70;1.00;;;;;;5054713;28;20244;-69
2021/10/05 07:04:58;;;;;;;3.58;1.98;;;12.70;1.00;;;;;;5054810;28;20203;-81
2021/10/05 07:07:26;;;;;;;5.45;1.85;;;12.70;1.00;;;;;;5052864;28;20210;-69
2021/10/05 07:09:53;;;;;;;3.38;2.55;;;12.80;1.00;;;;;;5052468;28;20289;-70
2021/10/05 07:12:20;;;;;;;2.33;1.67;;;12.70;1.00;;;;;;5054225;28;20740;-77
2021/10/05 07:14:47;;;;;;;5.00;1.70;;;12.70;1.00;;;;;;5053311;28;20257;-75
2021/10/05 07:17:14;;;;;;;4.80;2.92;;;12.70;1.00;;;;;;5052930;28;20208;-71
2021/10/05 07:19:41;;;;;;;7.15;2.15;;;12.60;1.00;;;;;;5053412;28;20298;-76
2021/10/05 07:22:08;;;;;;;3.97;1.80;;;12.70;1.00;;;;;;5054573;28;20211;-78
2021/10/05 07:24:36;;;;;;;2.60;1.40;;;12.80;1.00;;;;;;5054909;28;20207;-78
2021/10/05 07:27:03;;;;;;;3.80;1.33;;;12.70;1.00;;;;;;5052760;28;20211;-70
2021/10/05 07:29:30;;;;;;;5.55;1.42;;;12.80;1.00;;;;;;5057054;28;20206;-77
2021/10/05 07:31:57;;;;;;;3.85;1.50;;;12.90;1.00;;;;;;5053039;28;20202;-74
2021/10/05 07:34:24;;;;;;;3.10;1.60;;;13.00;1.00;;;;;;5053102;28;20257;-79
2021/10/05 07:36:51;;;;;;;8.38;2.03;;;13.00;1.00;;;;;;5060994;28;20263;-80
2021/10/05 07:39:18;;;;;;;5.72;1.58;;;13.20;1.00;;;;;;5065614;28;20199;-80
2021/10/05 07:41:47;;;;;;;2.50;1.45;;;13.20;1.00;;;;;;5071760;28;20218;-72
2021/10/05 07:44:14;;;;;;;3.28;1.10;;;13.30;1.00;;;;;;5071795;28;20207;-69
2021/10/05 07:46:41;;;;;;;3.33;1.20;;;13.20;1.00;;;;;;5071523;28;20206;-78
2021/10/05 07:49:08;;;;;;;3.83;1.40;;;13.10;1.00;;;;;;5071510;28;20252;-68
2021/10/05 07:51:35;;;;;;;2.40;1.55;;;13.00;1.00;;;;;;5071386;28;20210;-76
2021/10/05 07:54:03;;;;;;;2.58;1.00;;;13.10;1.00;;;;;;5070389;28;20615;-80
2021/10/05 07:56:30;;;;;;;2.92;1.00;;;13.10;1.00;;;;;;5051333;28;20586;-69
2021/10/05 07:58:59;;;;;;;8.00;2.28;;;13.20;1.00;;;;;;5050938;28;20591;-77
2021/10/05 08:01:26;;;;;;;2.13;1.02;;;13.30;1.00;;;;;;5053974;28;20234;-74
2021/10/05 08:03:53;;;;;;;2.67;1.10;;;13.20;1.00;;;;;;5058735;28;20264;-78
2021/10/05 08:06:20;;;;;;;5.10;1.20;;;13.30;1.00;;;;;;5052331;28;20287;-72
2021/10/05 08:08:47;;;;;;;1.35;1.00;;;13.10;1.00;;;;;;5070631;28;20206;-73
2021/10/05 08:11:14;;;;;;;1.85;1.08;;;13.20;1.00;;;;;;5070893;28;20206;-74
2021/10/05 08:13:41;;;;;;;2.45;1.45;;;13.40;1.00;;;;;;5071452;28;20206;-72
2021/10/05 08:16:09;;;;;;;6.18;1.63;;;13.50;1.00;;;;;;5070700;28;20202;-72
2021/10/05 08:18:36;;;;;;;5.90;1.30;;;13.60;1.00;;;;;;5065720;28;20206;-72
2021/10/05 08:21:04;;;;;;;2.10;1.50;;;13.50;1.00;;;;;;5059168;28;20222;-71
2021/10/05 08:23:31;;;;;;;3.42;1.42;;;13.50;1.00;;;;;;5069521;28;20289;-72
2021/10/05 08:25:58;;;;;;;8.60;1.83;;;13.50;1.00;;;;;;5066221;28;20211;-72
2021/10/05 08:28:25;;;;;;;3.00;1.35;;;13.70;1.00;;;;;;5067715;28;20681;-72
2021/10/05 08:30:53;;;;;;;3.85;1.63;;;13.70;1.00;;;;;;5070551;28;20681;-74
2021/10/05 08:33:21;;;;;;;2.15;1.27;;;13.70;1.00;;;;;;5070686;28;20252;-75
2021/10/05 08:35:48;;;;;;;4.82;2.00;;;13.80;1.00;;;;;;5071408;28;20263;-74
2021/10/05 08:38:15;;;;;;;5.72;1.88;;;13.90;1.00;;;;;;5070417;28;20624;-74
2021/10/05 08:40:42;;;;;;;5.93;2.15;;;13.90;1.00;;;;;;5070974;28;20295;-74
2021/10/05 08:43:09;;;;;;;2.80;1.83;;;13.90;1.00;;;;;;5070232;28;20202;-73
2021/10/05 08:45:36;;;;;;;6.00;1.90;;;13.90;1.00;;;;;;5071109;28;20264;-75
2021/10/05 08:48:03;;;;;;;9.02;1.52;;;13.70;1.00;;;;;;5068783;28;20206;-75
2021/10/05 08:50:32;;;;;;;4.25;2.67;;;13.70;1.00;;;;;;5069675;28;20202;-73
2021/10/05 08:52:59;;;;;;;7.07;3.53;;;13.40;1.00;;;;;;5069748;28;20665;-73
2021/10/05 08:55:26;;;;;;;3.40;2.03;;;13.70;1.00;;;;;;5068952;28;20206;-74
2021/10/05 08:57:53;;;;;;;4.15;1.75;;;13.80;1.00;;;;;;5069442;28;20202;-74
2021/10/05 09:00:22;;;;;;;3.03;1.90;;;14.00;1.00;;;;;;5070085;28;20244;-73
2021/10/05 09:02:52;;;;;;;6.55;2.35;;;14.30;1.00;;;;;;5070768;28;20260;-74
2021/10/05 09:05:20;;;;;;;8.13;2.05;;;14.50;1.00;;;;;;5070083;28;20210;-74
2021/10/05 09:07:50;;;;;;;4.60;2.35;;;14.20;1.00;;;;;;5070266;28;20210;-75
2021/10/05 09:10:19;;;;;;;4.15;2.13;;;14.20;1.00;;;;;;5070130;28;20210;-74
2021/10/05 09:12:46;;;;;;;5.88;2.60;;;14.30;1.00;;;;;;5056735;28;20271;-75
2021/10/05 09:15:15;;;;;;;5.07;2.33;;;14.40;1.00;;;;;;5070306;28;20255;-75
2021/10/05 09:17:44;;;;;;;5.80;2.88;;;14.30;1.00;;;;;;5070418;28;20260;-74
2021/10/05 09:20:23;;;;;;;6.18;2.38;;;14.30;1.00;;;;;;5070470;28;20240;-75
2021/10/05 09:23:00;;;;;;;3.80;2.38;;;14.40;1.00;;;;;;5070057;28;20214;-75
2021/10/05 09:25:29;;;;;;;2.72;1.95;;;14.10;1.00;;;;;;5065666;28;20726;-74
2021/10/05 09:27:57;;;;;;;2.55;1.50;;;14.20;1.00;;;;;;5070018;28;20209;-74
2021/10/05 09:30:25;;;;;;;3.85;2.08;;;14.30;1.00;;;;;;5070170;28;20206;-74
2021/10/05 09:33:03;;;;;;;2.75;2.13;;;14.50;1.00;;;;;;5069914;28;20292;-75
2021/10/05 09:35:42;;;;;;;4.60;1.85;;;14.50;1.00;;;;;;5069973;28;20201;-75
2021/10/05 09:38:15;;;;;;;3.08;1.08;;;14.50;1.00;;;;;;5068587;28;20202;-74
2021/10/05 09:40:42;;;;;;;2.88;1.85;;;14.60;1.00;;;;;;5070129;28;20248;-76
2021/10/05 09:43:20;;;;;;;4.68;1.52;;;14.70;1.00;;;;;;5068881;28;20259;-76
2021/10/05 09:45:47;;;;;;;4.30;1.30;;;14.80;1.00;;;;;;5069932;28;20249;-78
2021/10/05 09:48:14;;;;;;;6.15;1.75;;;14.90;1.00;;;;;;5069624;28;20202;-75
2021/10/05 09:50:42;;;;;;;6.03;1.77;;;14.90;1.00;;;;;;5069748;28;20210;-75
2021/10/05 09:53:16;;;;;;;3.47;1.17;;;15.00;1.00;;;;;;5069710;28;20251;-76
2021/10/05 09:55:45;;;;;;;2.40;1.38;;;14.80;1.00;;;;;;5069973;28;20206;-76
2021/10/05 09:58:15;;;;;;;4.90;1.50;;;14.70;1.00;;;;;;5069244;28;20259;-75
2021/10/05 10:00:45;;;;;;;2.67;1.33;;;14.50;1.00;;;;;;5069923;28;20690;-76
2021/10/05 10:03:13;;;;;;;2.25;0.98;;;14.40;1.00;;;;;;5069690;28;20198;-75
2021/10/05 10:05:40;;;;;;;3.63;1.10;;;14.40;1.00;;;;;;5069814;28;20202;-75
2021/10/05 10:08:08;;;;;;;2.88;0.85;;;14.40;1.00;;;;;;5069313;28;20218;-75
2021/10/05 10:10:38;;;;;;;4.78;1.15;;;14.50;1.00;;;;;;5058624;28;20207;-75
2021/10/05 10:13:07;;;;;;;4.75;1.70;;;14.50;1.00;;;;;;5069835;28;20206;-75
2021/10/05 10:15:36;;;;;;;2.60;1.77;;;14.70;1.00;;;;;;5069755;28;20210;-74
2021/10/05 10:18:08;;;;;;;5.22;1.77;;;14.70;1.00;;;;;;5069957;28;20210;-75
2021/10/05 10:20:35;;;;;;;4.78;2.13;;;14.80;1.00;;;;;;5069560;28;20284;-75
2021/10/05 10:23:03;;;;;;;2.17;1.70;;;14.90;1.00;;;;;;5069804;28;20628;-74
2021/10/05 10:25:32;;;;;;;5.25;1.40;;;15.20;1.00;;;;;;5070166;28;20289;-75
2021/10/05 10:28:14;;;;;;;5.70;1.50;;;15.20;1.00;;;;;;5070225;28;20267;-74
2021/10/05 10:30:50;;;;;;;10.65;1.80;;;15.20;1.00;;;;;;5070076;28;20210;-75
2021/10/05 10:33:18;;;;;;;4.85;1.52;;;14.80;1.00;;;;;;5056510;28;20210;-74
2021/10/05 10:35:53;;;;;;;4.32;1.67;;;15.30;1.00;;;;;;5069569;28;20263;-74
2021/10/05 10:38:25;;;;;;;4.90;1.58;;;15.20;1.00;;;;;;5056091;28;20210;-73
2021/10/05 10:40:52;;;;;;;2.97;1.63;;;15.40;1.00;;;;;;5069822;28;20275;-75
2021/10/05 10:43:23;;;;;;;2.38;1.27;;;16.00;1.00;;;;;;5069352;28;20634;-75
2021/10/05 10:45:52;;;;;;;3.75;1.85;;;16.70;1.00;;;;;;5073360;28;20761;-74
2021/10/05 10:48:29;;;;;;;2.20;1.20;;;16.90;1.00;;;;;;5072349;28;20206;-75
2021/10/05 10:50:58;;;;;;;2.33;1.30;;;17.30;1.00;;;;;;5073454;28;20259;-74
2021/10/05 10:53:37;;;;;;;5.53;1.33;;;17.20;1.00;;;;;;5073189;28;20202;-75
2021/10/05 10:56:05;;;;;;;4.70;1.75;;;17.40;1.00;;;;;;5072868;28;20210;-75
2021/10/05 10:58:40;;;;;;;4.90;2.00;;;17.80;1.00;;;;;;5072942;28;20202;-73
2021/10/05 11:01:07;;;;;;;2.10;1.05;;;18.00;1.00;;;;;;5072666;28;20232;-72
2021/10/05 11:03:34;;;;;;;10.52;2.05;;;17.30;1.00;;;;;;5072817;28;20252;-74
2021/10/05 11:06:01;;;;;;;2.63;1.70;;;16.70;1.00;;;;;;5073060;28;20214;-72
2021/10/05 11:08:28;;;;;;;2.75;1.30;;;16.60;1.00;;;;;;5073294;28;20552;-74
2021/10/05 11:11:03;;;;;;;3.42;1.60;;;16.60;1.00;;;;;;5073196;28;20260;-74
2021/10/05 11:13:30;;;;;;;2.28;1.33;;;16.70;1.00;;;;;;5072917;28;20297;-73
2021/10/05 11:15:59;;;;;;;1.50;0.85;;;16.70;1.00;;;;;;5072829;28;20743;-72
2021/10/05 11:18:27;;;;;;;1.50;1.40;;;16.40;1.00;;;;;;5073048;28;20206;-74
2021/10/05 11:20:57;;;;;;;4.50;1.08;;;16.40;1.00;;;;;;5072860;28;20226;-75
2021/10/05 11:23:26;;;;;;;2.45;1.55;;;16.10;1.00;;;;;;5072331;28;20753;-74
2021/10/05 11:25:55;;;;;;;2.28;0.93;;;15.90;1.00;;;;;;5072254;28;20297;-74
2021/10/05 11:28:24;;;;;;;3.47;0.98;;;15.90;1.00;;;;;;5064474;28;20264;-74
2021/10/05 11:30:55;;;;;;;1.50;1.00;;;15.90;1.00;;;;;;5072556;28;20293;-73
2021/10/05 11:33:27;;;;;;;1.27;0.95;;;15.90;1.00;;;;;;5072000;28;20252;-75
2021/10/05 11:35:55;;;;;;;1.42;1.08;;;16.00;1.00;;;;;;5072473;28;20260;-73
2021/10/05 11:38:22;;;;;;;1.23;0.80;;;16.00;1.00;;;;;;5071689;28;20722;-73
2021/10/05 11:40:57;;;;;;;1.13;0.70;;;16.00;1.00;;;;;;5072365;28;20210;-74
2021/10/05 11:43:33;;;;;;;0.93;0.80;;;16.00;1.00;;;;;;5071876;28;20202;-73
2021/10/05 11:46:00;;;;;;;1.73;0.77;;;16.00;1.00;;;;;;5072205;28;20274;-73
2021/10/05 11:48:38;;;;;;;1.52;0.70;;;16.00;1.00;;;;;;5072086;28;20289;-73
2021/10/05 11:51:05;;;;;;;3.80;0.93;;;16.20;1.00;;;;;;5071806;28;20587;-73
2021/10/05 11:53:36;;;;;;;3.05;1.17;;;16.40;1.00;;;;;;5071927;28;20351;-74
2021/10/05 11:56:07;;;;;;;1.65;1.20;;;16.40;1.00;;;;;;5070772;28;20206;-74
2021/10/05 11:58:45;;;;;;;3.97;1.92;;;16.30;1.00;;;;;;5071690;28;20255;-73
2021/10/05 12:01:17;;;;;;;1.17;0.80;;;16.20;1.00;;;;;;5067405;28;20700;-74
2021/10/05 12:03:47;;;;;;;1.63;1.10;;;16.10;1.00;;;;;;5056589;28;20674;-74
2021/10/05 12:06:26;;;;;;;1.92;1.02;;;16.20;1.00;;;;;;5051246;28;20203;-75
2021/10/05 12:08:53;;;;;;;2.35;1.08;;;16.30;1.00;;;;;;5050979;28;20252;-74
2021/10/05 12:11:20;;;;;;;0.80;0.63;;;16.50;1.00;;;;;;5056473;28;20207;-73
2021/10/05 12:13:48;;;;;;;0.70;0.70;;;16.80;1.00;;;;;;5051882;28;20219;-74
2021/10/05 12:16:15;;;;;;;1.70;0.70;;;17.10;1.00;;;;;;5057482;28;20674;-74
2021/10/05 12:18:43;;;;;;;1.52;0.57;;;17.30;1.00;;;;;;5071787;28;20255;-74
2021/10/05 12:21:14;;;;;;;4.22;0.60;;;17.30;1.00;;;;;;5070749;28;20230;-73
2021/10/05 12:23:51;;;;;;;0.70;0.40;;;17.70;1.00;;;;;;5071447;28;20202;-74
2021/10/05 12:26:18;;;;;;;1.35;0.57;;;18.30;1.00;;;;;;5070797;28;20212;-76
2021/10/05 12:28:56;;;;;;;0.70;0.43;;;18.50;1.00;;;;;;5071210;28;20207;-73
2021/10/05 12:31:24;;;;;;;1.75;0.30;;;18.80;1.00;;;;;;5070342;28;20220;-77
2021/10/05 12:33:55;;;;;;;1.17;0.57;;;18.90;1.00;;;;;;5071539;28;20210;-74
2021/10/05 12:36:24;;;;;;;0.73;0.40;;;19.00;1.00;;;;;;5070589;28;20248;-75
2021/10/05 12:38:51;;;;;;;0.30;0.30;;;19.00;1.00;;;;;;5070946;28;20209;-74
2021/10/05 12:41:19;;;;;;;0.70;0.30;;;18.80;1.00;;;;;;5070555;28;20656;-73
2021/10/05 12:43:47;;;;;;;0.35;0.30;;;18.80;1.00;;;;;;5071051;28;20202;-73
2021/10/05 12:46:17;;;;;;;1.05;0.32;;;18.50;1.00;;;;;;5070197;28;20213;-76
2021/10/05 12:48:47;;;;;;;0.65;0.25;;;18.30;1.00;;;;;;5070306;28;20240;-76
2021/10/05 12:51:16;;;;;;;1.55;0.38;;;18.00;1.00;;;;;;5069679;28;20210;-74
2021/10/05 12:53:46;;;;;;;2.22;0.70;;;17.90;1.00;;;;;;5070788;28;20206;-74
2021/10/05 12:56:15;;;;;;;1.50;0.60;;;18.30;1.00;;;;;;5070315;28;20202;-73
2021/10/05 12:58:42;;;;;;;1.73;0.65;;;18.50;1.00;;;;;;5070369;28;20553;-72
2021/10/05 13:01:10;;;;;;;2.42;0.63;;;18.60;1.00;;;;;;5070537;28;20218;-74
2021/10/05 13:03:38;;;;;;;2.85;0.80;;;18.60;1.00;;;;;;5070608;28;20251;-73